Time,TemperatureF,DewpointF,PressureIn,WindDirection,WindDirectionDegrees,WindSpeedMPH,WindSpeedGustMPH,Humidity,HourlyPrecipIn,Conditions,Clouds,dailyrainin,SoftwareType,DateUTC
2013-05-25 00:02:00,37.0,34.0,-100.00,ESE,115,0.0,1.0,90,-99.99,,,-99.99,,2013-05-25 04:02:00,
2013-05-25 00:13:00,37.0,34.0,-100.00,South,190,0.0,1.0,91,-99.99,,,-99.99,,2013-05-25 04:13:00,
2013-05-25 00:23:00,36.0,34.0,-100.00,SSW,205,0.0,4.0,91,-99.99,,,-99.99,,2013-05-25 04:23:00,
2013-05-25 00:33:00,36.0,34.0,-100.00,SE,135,0.0,1.0,91,-99.99,,,-99.99,,2013-05-25 04:33:00,
2013-05-25 00:43:00,36.0,34.0,-100.00,SE,130,0.0,0.0,92,-99.99,,,-99.99,,2013-05-25 04:43:00,
2013-05-25 00:52:00,35.0,33.0,-100.00,SSW,200,0.0,2.0,92,-99.99,,,-99.99,,2013-05-25 04:52:00,
2013-05-25 01:02:00,35.0,33.0,-100.00,SSW,210,0.0,4.0,93,-99.99,,,-99.99,,2013-05-25 05:02:00,
2013-05-25 01:12:00,35.0,33.0,-100.00,East,80,0.0,1.0,93,-99.99,,,-99.99,,2013-05-25 05:12:00,
2013-05-25 01:22:00,35.0,33.0,-100.00,East,80,0.0,1.0,93,-99.99,,,-99.99,,2013-05-25 05:22:00,
2013-05-25 01:32:00,34.0,33.0,-100.00,East,100,0.0,4.0,93,-99.99,,,-99.99,,2013-05-25 05:32:00,
2013-05-25 01:43:00,34.0,33.0,-100.00,East,100,0.0,4.0,93,-99.99,,,-99.99,,2013-05-25 05:43:00,
2013-05-25 01:52:00,34.0,33.0,-100.00,South,175,0.0,2.0,93,-99.99,,,-99.99,,2013-05-25 05:52:00,
2013-05-25 02:02:00,34.0,33.0,-100.00,South,175,0.0,2.0,93,-99.99,,,-99.99,,2013-05-25 06:02:00,
2013-05-25 02:12:00,34.0,33.0,-100.00,SSW,210,0.0,3.0,93,-99.99,,,-99.99,,2013-05-25 06:12:00,
2013-05-25 02:22:00,34.0,33.0,-100.00,SSW,210,0.0,3.0,93,-99.99,,,-99.99,,2013-05-25 06:22:00,
2013-05-25 02:32:00,34.0,32.0,-100.00,South,170,0.0,2.0,94,-99.99,,,-99.99,,2013-05-25 06:32:00,
2013-05-25 02:42:00,33.0,31.0,-100.00,NNW,340,0.0,1.0,94,-99.99,,,-99.99,,2013-05-25 06:42:00,
2013-05-25 02:52:00,33.0,31.0,-100.00,SE,140,0.0,1.0,94,-99.99,,,-99.99,,2013-05-25 06:52:00,
2013-05-25 03:01:00,33.0,31.0,-100.00,ESE,105,0.0,2.0,94,-99.99,,,-99.99,,2013-05-25 07:01:00,
2013-05-25 03:11:00,33.0,32.0,-100.00,South,170,0.0,3.0,94,-99.99,,,-99.99,,2013-05-25 07:11:00,
2013-05-25 03:21:00,34.0,32.0,-100.00,SSE,160,0.0,2.0,94,-99.99,,,-99.99,,2013-05-25 07:21:00,
2013-05-25 03:32:00,33.0,32.0,-100.00,SSE,165,0.0,0.0,94,-99.99,,,-99.99,,2013-05-25 07:32:00,
2013-05-25 03:42:00,33.0,32.0,-100.00,SE,140,0.0,2.0,95,-99.99,,,-99.99,,2013-05-25 07:42:00,
2013-05-25 03:52:00,34.0,32.0,-100.00,SE,145,0.0,0.0,95,-99.99,,,-99.99,,2013-05-25 07:52:00,
2013-05-25 04:02:00,34.0,33.0,-100.00,SE,130,0.0,1.0,95,-99.99,,,-99.99,,2013-05-25 08:02:00,
2013-05-25 04:11:00,34.0,32.0,-100.00,West,280,0.0,4.0,94,0.00,,,-99.99,,2013-05-25 08:11:00,
2013-05-25 04:22:00,34.0,32.0,-100.00,South,185,0.0,1.0,95,0.00,,,-99.99,,2013-05-25 08:22:00,
2013-05-25 04:32:00,33.0,32.0,-100.00,SSE,150,0.0,1.0,95,0.00,,,-99.99,,2013-05-25 08:32:00,
2013-05-25 04:42:00,34.0,32.0,-100.00,WNW,290,0.0,3.0,94,0.00,,,-99.99,,2013-05-25 08:42:00,
2013-05-25 04:51:00,33.0,31.0,-100.00,WNW,300,1.0,1.0,94,0.00,,,-99.99,,2013-05-25 08:51:00,
2013-05-25 05:02:00,33.0,31.0,-100.00,NW,315,0.0,1.0,94,0.00,,,-99.99,,2013-05-25 09:02:00,
2013-05-25 05:11:00,32.0,31.0,-100.00,NNW,330,0.0,1.0,95,0.00,,,-99.99,,2013-05-25 09:11:00,
2013-05-25 05:21:00,32.0,31.0,-100.00,ESE,115,0.0,3.0,95,0.00,,,-99.99,,2013-05-25 09:21:00,
2013-05-25 05:33:00,32.0,31.0,-100.00,WNW,300,0.0,1.0,95,0.00,,,-99.99,,2013-05-25 09:33:00,
2013-05-25 05:43:00,32.0,31.0,-100.00,SE,135,1.0,3.0,95,0.00,,,-99.99,,2013-05-25 09:43:00,
2013-05-25 05:52:00,32.0,31.0,-100.00,NW,320,0.0,3.0,95,0.00,,,-99.99,,2013-05-25 09:52:00,
2013-05-25 06:03:00,32.0,31.0,-100.00,South,180,0.0,2.0,95,0.00,,,-99.99,,2013-05-25 10:03:00,
2013-05-25 06:12:00,32.0,31.0,-100.00,South,175,0.0,3.0,95,0.00,,,-99.99,,2013-05-25 10:12:00,
2013-05-25 06:22:00,32.0,31.0,-100.00,SSE,155,0.0,3.0,95,0.00,,,-99.99,,2013-05-25 10:22:00,
2013-05-25 06:33:00,32.0,31.0,-100.00,SSE,150,0.0,0.0,95,0.00,,,-99.99,,2013-05-25 10:33:00,
2013-05-25 06:42:00,33.0,32.0,-100.00,SE,145,0.0,3.0,95,0.00,,,-99.99,,2013-05-25 10:42:00,
2013-05-25 06:52:00,33.0,32.0,-100.00,East,100,0.0,2.0,95,0.00,,,-99.99,,2013-05-25 10:52:00,
2013-05-25 07:03:00,34.0,33.0,-100.00,SSW,210,0.0,3.0,95,0.00,,,-99.99,,2013-05-25 11:03:00,
2013-05-25 07:12:00,35.0,34.0,-100.00,SSE,160,0.0,2.0,95,0.00,,,-99.99,,2013-05-25 11:12:00,
2013-05-25 07:22:00,36.0,35.0,-100.00,NW,320,1.0,4.0,94,0.00,,,-99.99,,2013-05-25 11:22:00,
2013-05-25 07:32:00,37.0,35.0,-100.00,NW,305,0.0,2.0,92,-99.99,,,-99.99,,2013-05-25 11:32:00,
2013-05-25 07:42:00,38.0,36.0,-100.00,West,270,0.0,3.0,91,-99.99,,,-99.99,,2013-05-25 11:42:00,
2013-05-25 07:52:00,38.0,35.0,-100.00,NW,315,1.0,3.0,89,-99.99,,,-99.99,,2013-05-25 11:52:00,
2013-05-25 08:01:00,38.0,35.0,-100.00,NNW,335,0.0,2.0,89,-99.99,,,-99.99,,2013-05-25 12:01:00,
2013-05-25 08:12:00,38.0,36.0,-100.00,NW,320,1.0,2.0,89,-99.99,,,-99.99,,2013-05-25 12:12:00,
2013-05-25 08:22:00,40.0,36.0,-100.00,NNW,340,1.0,3.0,86,-99.99,,,-99.99,,2013-05-25 12:22:00,
2013-05-25 08:32:00,41.0,36.0,-100.00,North,5,2.0,5.0,81,-99.99,,,-99.99,,2013-05-25 12:32:00,
2013-05-25 08:52:00,44.0,36.0,-100.00,East,80,1.0,5.0,74,-99.99,,,-99.99,,2013-05-25 12:52:00,
2013-05-25 09:02:00,44.0,35.0,-100.00,North,0,3.0,6.0,70,-99.99,,,-99.99,,2013-05-25 13:02:00,
2013-05-25 09:11:00,44.0,35.0,-100.00,North,0,4.0,9.0,71,-99.99,,,-99.99,,2013-05-25 13:11:00,
2013-05-25 09:22:00,44.0,35.0,-100.00,North,0,4.0,8.0,71,-99.99,,,-99.99,,2013-05-25 13:22:00,
2013-05-25 09:32:00,44.0,35.0,-100.00,North,355,3.0,8.0,69,-99.99,,,-99.99,,2013-05-25 13:32:00,
2013-05-25 09:42:00,44.0,35.0,-100.00,North,355,1.0,6.0,70,-99.99,,,-99.99,,2013-05-25 13:42:00,
2013-05-25 09:52:00,46.0,35.0,-100.00,NNE,15,3.0,6.0,66,-99.99,,,-99.99,,2013-05-25 13:52:00,
2013-05-25 10:02:00,47.0,37.0,-100.00,NE,40,1.0,4.0,68,-99.99,,,-99.99,,2013-05-25 14:02:00,
2013-05-25 10:11:00,46.0,35.0,-100.00,NW,305,4.0,6.0,65,-99.99,,,-99.99,,2013-05-25 14:11:00,
2013-05-25 10:22:00,46.0,35.0,-100.00,NW,325,6.0,8.0,63,-99.99,,,-99.99,,2013-05-25 14:22:00,
2013-05-25 10:32:00,48.0,35.0,-100.00,North,0,6.0,8.0,60,-99.99,,,-99.99,,2013-05-25 14:32:00,
2013-05-25 10:42:00,49.0,37.0,-100.00,North,0,1.0,8.0,61,-99.99,,,-99.99,,2013-05-25 14:42:00,
2013-05-25 10:52:00,49.0,36.0,-100.00,NNW,330,4.0,8.0,60,-99.99,,,-99.99,,2013-05-25 14:52:00,
2013-05-25 11:01:00,49.0,36.0,-100.00,WNW,300,7.0,12.0,60,-99.99,,,-99.99,,2013-05-25 15:01:00,
2013-05-25 11:12:00,49.0,35.0,-100.00,NW,320,4.0,8.0,58,-99.99,,,-99.99,,2013-05-25 15:12:00,
2013-05-25 11:22:00,52.0,37.0,-100.00,North,10,3.0,11.0,55,-99.99,,,-99.99,,2013-05-25 15:22:00,
2013-05-25 11:33:00,52.0,35.0,-100.00,North,0,3.0,12.0,52,-99.99,,,-99.99,,2013-05-25 15:33:00,
2013-05-25 11:43:00,54.0,36.0,-100.00,East,85,1.0,5.0,49,-99.99,,,-99.99,,2013-05-25 15:43:00,
2013-05-25 11:53:00,55.0,35.0,-100.00,NNW,335,3.0,11.0,47,-99.99,,,-99.99,,2013-05-25 15:53:00,
2013-05-25 12:03:00,55.0,37.0,-100.00,WSW,240,2.0,7.0,50,-99.99,,,-99.99,,2013-05-25 16:03:00,
2013-05-25 12:12:00,56.0,36.0,-100.00,ENE,75,1.0,10.0,46,-99.99,,,-99.99,,2013-05-25 16:12:00,
2013-05-25 12:23:00,53.0,34.0,-100.00,West,275,6.0,9.0,48,-99.99,,,-99.99,,2013-05-25 16:23:00,
2013-05-25 12:32:00,54.0,33.0,-100.00,WNW,290,5.0,10.0,45,-99.99,,,-99.99,,2013-05-25 16:32:00,
2013-05-25 12:42:00,56.0,35.0,-100.00,NNE,25,3.0,7.0,45,-99.99,,,-99.99,,2013-05-25 16:42:00,
2013-05-25 12:52:00,55.0,36.0,-100.00,NW,305,4.0,12.0,48,-99.99,,,-99.99,,2013-05-25 16:52:00,
2013-05-25 13:03:00,56.0,36.0,-100.00,NW,320,4.0,11.0,46,-99.99,,,-99.99,,2013-05-25 17:03:00,
2013-05-25 13:11:00,56.0,33.0,-100.00,NNW,345,7.0,12.0,41,-99.99,,,-99.99,,2013-05-25 17:11:00,
2013-05-25 13:22:00,58.0,38.0,-100.00,North,0,7.0,13.0,48,-99.99,,,-99.99,,2013-05-25 17:22:00,
2013-05-25 13:32:00,58.0,35.0,-100.00,NNW,330,7.0,12.0,41,-99.99,,,-99.99,,2013-05-25 17:32:00,
2013-05-25 13:42:00,57.0,32.0,-100.00,North,0,6.0,12.0,38,-99.99,,,-99.99,,2013-05-25 17:42:00,
2013-05-25 13:52:00,60.0,34.0,-100.00,NNE,15,8.0,12.0,37,-99.99,,,-99.99,,2013-05-25 17:52:00,
2013-05-25 14:02:00,60.0,34.0,-100.00,NW,320,4.0,12.0,38,-99.99,,,-99.99,,2013-05-25 18:02:00,
2013-05-25 14:11:00,59.0,31.0,-100.00,North,0,9.0,13.0,34,-99.99,,,-99.99,,2013-05-25 18:11:00,
2013-05-25 14:21:00,58.0,34.0,-100.00,NNW,330,4.0,16.0,39,-99.99,,,-99.99,,2013-05-25 18:21:00,
2013-05-25 14:32:00,59.0,31.0,-100.00,NNW,335,11.0,17.0,35,-99.99,,,-99.99,,2013-05-25 18:32:00,
2013-05-25 14:42:00,60.0,31.0,-100.00,North,0,6.0,11.0,34,-99.99,,,-99.99,,2013-05-25 18:42:00,
2013-05-25 14:52:00,60.0,34.0,-100.00,NNW,345,7.0,11.0,37,-99.99,,,-99.99,,2013-05-25 18:52:00,
2013-05-25 15:02:00,60.0,33.0,-100.00,NW,315,6.0,12.0,36,-99.99,,,-99.99,,2013-05-25 19:02:00,
2013-05-25 15:11:00,61.0,35.0,-100.00,NNE,20,6.0,16.0,37,-99.99,,,-99.99,,2013-05-25 19:11:00,
2013-05-25 15:22:00,61.0,33.0,-100.00,NNW,335,5.0,14.0,34,-99.99,,,-99.99,,2013-05-25 19:22:00,
2013-05-25 15:32:00,61.0,35.0,-100.00,ESE,110,1.0,16.0,37,-99.99,,,-99.99,,2013-05-25 19:32:00,
2013-05-25 15:42:00,62.0,33.0,-100.00,NW,315,1.0,11.0,33,-99.99,,,-99.99,,2013-05-25 19:42:00,
2013-05-25 15:52:00,62.0,32.0,-100.00,NW,305,8.0,12.0,32,-99.99,,,-99.99,,2013-05-25 19:52:00,
2013-05-25 16:02:00,62.0,32.0,-100.00,NNW,330,6.0,12.0,32,-99.99,,,-99.99,,2013-05-25 20:02:00,
2013-05-25 16:11:00,61.0,33.0,-100.00,West,275,6.0,15.0,33,-99.99,,,-99.99,,2013-05-25 20:11:00,
2013-05-25 16:22:00,62.0,32.0,-100.00,NW,325,4.0,12.0,32,-99.99,,,-99.99,,2013-05-25 20:22:00,
2013-05-25 16:32:00,62.0,32.0,-100.00,North,0,10.0,19.0,32,-99.99,,,-99.99,,2013-05-25 20:32:00,
2013-05-25 16:42:00,62.0,33.0,-100.00,NNW,335,4.0,14.0,32,-99.99,,,-99.99,,2013-05-25 20:42:00,
2013-05-25 16:52:00,63.0,32.0,-100.00,NW,325,5.0,11.0,30,-99.99,,,-99.99,,2013-05-25 20:52:00,
2013-05-25 17:02:00,62.0,32.0,-100.00,WNW,290,7.0,13.0,32,-99.99,,,-99.99,,2013-05-25 21:02:00,
2013-05-25 17:11:00,63.0,31.0,-100.00,North,5,9.0,16.0,30,-99.99,,,-99.99,,2013-05-25 21:11:00,
2013-05-25 17:21:00,63.0,32.0,-100.00,North,0,6.0,11.0,30,-99.99,,,-99.99,,2013-05-25 21:21:00,
2013-05-25 17:33:00,62.0,33.0,-100.00,NW,325,6.0,12.0,32,-99.99,,,-99.99,,2013-05-25 21:33:00,
2013-05-25 17:43:00,62.0,32.0,-100.00,WNW,295,5.0,9.0,32,-99.99,,,-99.99,,2013-05-25 21:43:00,
2013-05-25 17:53:00,62.0,29.0,-100.00,NW,310,9.0,14.0,29,-99.99,,,-99.99,,2013-05-25 21:53:00,
2013-05-25 18:03:00,62.0,31.0,-100.00,NNW,340,4.0,12.0,31,-99.99,,,-99.99,,2013-05-25 22:03:00,
2013-05-25 18:13:00,61.0,30.0,-100.00,NW,320,6.0,13.0,31,-99.99,,,-99.99,,2013-05-25 22:13:00,
2013-05-25 18:23:00,61.0,31.0,-100.00,NNW,345,7.0,16.0,31,-99.99,,,-99.99,,2013-05-25 22:23:00,
2013-05-25 18:32:00,62.0,31.0,-100.00,North,10,6.0,12.0,31,-99.99,,,-99.99,,2013-05-25 22:32:00,
2013-05-25 18:42:00,61.0,31.0,-100.00,NNW,330,3.0,12.0,31,-99.99,,,-99.99,,2013-05-25 22:42:00,
2013-05-25 18:52:00,61.0,30.0,-100.00,NNW,330,6.0,10.0,30,-99.99,,,-99.99,,2013-05-25 22:52:00,
2013-05-25 19:02:00,61.0,31.0,-100.00,North,5,4.0,11.0,31,-99.99,,,-99.99,,2013-05-25 23:02:00,
2013-05-25 19:12:00,61.0,31.0,-100.00,NNW,335,6.0,10.0,31,-99.99,,,-99.99,,2013-05-25 23:12:00,
2013-05-25 19:22:00,60.0,29.0,-100.00,NNW,330,7.0,12.0,29,-99.99,,,-99.99,,2013-05-25 23:22:00,
2013-05-25 19:32:00,60.0,30.0,-100.00,NNW,330,4.0,11.0,32,-99.99,,,-99.99,,2013-05-25 23:32:00,
2013-05-25 19:42:00,60.0,31.0,-100.00,North,0,4.0,11.0,33,-99.99,,,-99.99,,2013-05-25 23:42:00,
2013-05-25 19:52:00,60.0,31.0,-100.00,North,355,4.0,9.0,33,-99.99,,,-99.99,,2013-05-25 23:52:00,
2013-05-25 20:02:00,59.0,31.0,-100.00,NNW,340,4.0,8.0,35,-99.99,,,-99.99,,2013-05-26 00:02:00,
2013-05-25 20:11:00,58.0,32.0,-100.00,North,5,4.0,8.0,36,-99.99,,,-99.99,,2013-05-26 00:11:00,
2013-05-25 20:22:00,58.0,32.0,-100.00,NW,315,1.0,6.0,37,-99.99,,,-99.99,,2013-05-26 00:22:00,
2013-05-25 20:32:00,57.0,32.0,-100.00,North,0,2.0,6.0,39,-99.99,,,-99.99,,2013-05-26 00:32:00,
2013-05-25 20:42:00,56.0,32.0,-100.00,NNW,335,2.0,4.0,39,-99.99,,,-99.99,,2013-05-26 00:42:00,
2013-05-25 20:52:00,56.0,33.0,-100.00,ENE,60,1.0,4.0,41,-99.99,,,-99.99,,2013-05-26 00:52:00,
2013-05-25 21:01:00,54.0,34.0,-100.00,ENE,60,1.0,2.0,46,-99.99,,,-99.99,,2013-05-26 01:01:00,
2013-05-25 21:11:00,54.0,33.0,-100.00,NNW,330,0.0,1.0,45,-99.99,,,-99.99,,2013-05-26 01:11:00,
2013-05-25 21:21:00,53.0,33.0,-100.00,SSW,200,0.0,3.0,46,-99.99,,,-99.99,,2013-05-26 01:21:00,
2013-05-25 21:32:00,53.0,34.0,-100.00,NNW,345,1.0,2.0,47,-99.99,,,-99.99,,2013-05-26 01:32:00,
2013-05-25 21:42:00,53.0,33.0,-100.00,NE,45,0.0,3.0,46,-99.99,,,-99.99,,2013-05-26 01:42:00,
2013-05-25 21:52:00,53.0,33.0,-100.00,NNE,20,1.0,2.0,46,-99.99,,,-99.99,,2013-05-26 01:52:00,
2013-05-25 22:02:00,52.0,33.0,-100.00,West,275,0.0,1.0,48,-99.99,,,-99.99,,2013-05-26 02:02:00,
2013-05-25 22:11:00,51.0,33.0,-100.00,NNE,30,0.0,2.0,49,-99.99,,,-99.99,,2013-05-26 02:11:00,
2013-05-25 22:21:00,51.0,34.0,-100.00,North,10,0.0,1.0,52,-99.99,,,-99.99,,2013-05-26 02:21:00,
2013-05-25 22:32:00,50.0,34.0,-100.00,ENE,65,0.0,1.0,54,-99.99,,,-99.99,,2013-05-26 02:32:00,
2013-05-25 22:42:00,49.0,34.0,-100.00,ENE,75,0.0,1.0,56,-99.99,,,-99.99,,2013-05-26 02:42:00,
2013-05-25 22:52:00,49.0,34.0,-100.00,NE,50,0.0,1.0,56,-99.99,,,-99.99,,2013-05-26 02:52:00,
2013-05-25 23:01:00,48.0,34.0,-100.00,ENE,75,0.0,1.0,58,-99.99,,,-99.99,,2013-05-26 03:01:00,
2013-05-25 23:11:00,47.0,34.0,-100.00,ENE,75,0.0,1.0,59,-99.99,,,-99.99,,2013-05-26 03:11:00,
2013-05-25 23:22:00,47.0,35.0,-100.00,ENE,75,0.0,2.0,62,-99.99,,,-99.99,,2013-05-26 03:22:00,
2013-05-25 23:33:00,47.0,34.0,-100.00,ENE,65,0.0,1.0,60,-99.99,,,-99.99,,2013-05-26 03:33:00,
2013-05-25 23:43:00,47.0,34.0,-100.00,East,80,0.0,1.0,61,-99.99,,,-99.99,,2013-05-26 03:43:00,
2013-05-25 23:53:00,46.0,34.0,-100.00,East,90,0.0,1.0,61,-99.99,,,-99.99,,2013-05-26 03:53:00,